sensor_id;sensor_type;location;lat;lon;timestamp;temperature;humidity
21895;DHT22;11112;51.270;7.224;2024-01-27T00:00:23;8.60;99.90
21895;DHT22;11112;51.270;7.224;2024-01-27T00:02:51;8.60;99.90
21895;DHT22;11112;51.270;7.224;2024-01-27T00:05:18;8.50;99.90
21895;DHT22;11112;51.270;7.224;2024-01-27T00:07:47;8.50;99.90
21895;DHT22;11112;51.270;7.224;2024-01-27T00:10:14;8.50;99.90
21895;DHT22;11112;51.270;7.224;2024-01-27T00:12:41;8.50;99.90
21895;DHT22;11112;51.270;7.224;2024-01-27T00:15:09;8.50;99.90
21895;DHT22;11112;51.270;7.224;2024-01-27T00:17:36;8.50;99.90
21895;DHT22;11112;51.270;7.224;2024-01-27T00:20:04;8.50;99.90
21895;DHT22;11112;51.270;7.224;2024-01-27T00:22:32;8.50;99.90
21895;DHT22;11112;51.270;7.224;2024-01-27T00:25:01;8.50;99.90
21895;DHT22;11112;51.270;7.224;2024-01-27T00:27:30;8.50;99.90
21895;DHT22;11112;51.270;7.224;2024-01-27T00:29:58;8.50;99.90
21895;DHT22;11112;51.270;7.224;2024-01-27T00:32:25;8.40;99.90
21895;DHT22;11112;51.270;7.224;2024-01-27T00:34:52;8.50;99.90
21895;DHT22;11112;51.270;7.224;2024-01-27T00:37:19;8.50;99.90
21895;DHT22;11112;51.270;7.224;2024-01-27T00:39:47;8.40;99.90
21895;DHT22;11112;51.270;7.224;2024-01-27T00:42:16;8.40;99.90
21895;DHT22;11112;51.270;7.224;2024-01-27T00:44:44;8.40;99.90
21895;DHT22;11112;51.270;7.224;2024-01-27T00:47:11;8.40;99.90
21895;DHT22;11112;51.270;7.224;2024-01-27T00:49:38;8.40;99.90
21895;DHT22;11112;51.270;7.224;2024-01-27T00:52:05;8.40;99.90
21895;DHT22;11112;51.270;7.224;2024-01-27T00:54:32;8.40;99.90
21895;DHT22;11112;51.270;7.224;2024-01-27T00:57:00;8.40;99.90
21895;DHT22;11112;51.270;7.224;2024-01-27T00:59:28;8.40;99.90
21895;DHT22;11112;51.270;7.224;2024-01-27T01:01:55;8.30;99.90
21895;DHT22;11112;51.270;7.224;2024-01-27T01:04:23;8.30;99.90
21895;DHT22;11112;51.270;7.224;2024-01-27T01:06:50;8.30;99.90
21895;DHT22;11112;51.270;7.224;2024-01-27T01:09:17;8.30;99.90
21895;DHT22;11112;51.270;7.224;2024-01-27T01:11:44;8.30;99.90
21895;DHT22;11112;51.270;7.224;2024-01-27T01:14:11;8.20;99.90
21895;DHT22;11112;51.270;7.224;2024-01-27T01:16:40;8.20;99.90
21895;DHT22;11112;51.270;7.224;2024-01-27T01:19:07;8.20;99.90
21895;DHT22;11112;51.270;7.224;2024-01-27T01:21:35;8.20;99.90
21895;DHT22;11112;51.270;7.224;2024-01-27T01:24:02;8.10;99.90
21895;DHT22;11112;51.270;7.224;2024-01-27T01:26:29;8.10;99.90
21895;DHT22;11112;51.270;7.224;2024-01-27T01:28:56;8.10;99.90
21895;DHT22;11112;51.270;7.224;2024-01-27T01:31:23;8.10;99.90
21895;DHT22;11112;51.270;7.224;2024-01-27T01:33:51;8.10;99.90
21895;DHT22;11112;51.270;7.224;2024-01-27T01:36:18;8.10;99.90
21895;DHT22;11112;51.270;7.224;2024-01-27T01:38:45;8.10;99.90
21895;DHT22;11112;51.270;7.224;2024-01-27T01:41:12;8.10;99.90
21895;DHT22;11112;51.270;7.224;2024-01-27T01:43:39;8.00;99.90
21895;DHT22;11112;51.270;7.224;2024-01-27T01:46:07;8.00;99.90
21895;DHT22;11112;51.270;7.224;2024-01-27T01:48:34;7.90;99.90
21895;DHT22;11112;51.270;7.224;2024-01-27T01:51:03;7.90;99.90
21895;DHT22;11112;51.270;7.224;2024-01-27T01:53:31;7.90;99.90
21895;DHT22;11112;51.270;7.224;2024-01-27T01:55:58;7.90;99.90
21895;DHT22;11112;51.270;7.224;2024-01-27T01:58:25;7.90;99.90
21895;DHT22;11112;51.270;7.224;2024-01-27T02:00:59;7.80;99.90
21895;DHT22;11112;51.270;7.224;2024-01-27T02:03:26;7.80;99.90
21895;DHT22;11112;51.270;7.224;2024-01-27T02:05:54;7.70;99.90
21895;DHT22;11112;51.270;7.224;2024-01-27T02:08:23;7.60;99.90
21895;DHT22;11112;51.270;7.224;2024-01-27T02:10:50;7.70;99.90
21895;DHT22;11112;51.270;7.224;2024-01-27T02:13:18;7.70;99.90
21895;DHT22;11112;51.270;7.224;2024-01-27T02:15:46;7.70;99.90
21895;DHT22;11112;51.270;7.224;2024-01-27T02:18:14;7.60;99.90
21895;DHT22;11112;51.270;7.224;2024-01-27T02:20:41;7.70;99.90
21895;DHT22;11112;51.270;7.224;2024-01-27T02:23:09;7.70;99.90
21895;DHT22;11112;51.270;7.224;2024-01-27T02:25:37;7.60;99.90
21895;DHT22;11112;51.270;7.224;2024-01-27T02:28:05;7.50;99.90
21895;DHT22;11112;51.270;7.224;2024-01-27T02:30:32;7.40;99.90
21895;DHT22;11112;51.270;7.224;2024-01-27T02:32:59;7.40;99.90
21895;DHT22;11112;51.270;7.224;2024-01-27T02:35:26;7.50;99.90
21895;DHT22;11112;51.270;7.224;2024-01-27T02:37:53;7.50;99.90
21895;DHT22;11112;51.270;7.224;2024-01-27T02:40:20;7.50;99.90
21895;DHT22;11112;51.270;7.224;2024-01-27T02:42:49;7.40;99.90
21895;DHT22;11112;51.270;7.224;2024-01-27T02:45:16;7.40;99.90
21895;DHT22;11112;51.270;7.224;2024-01-27T02:47:43;7.40;99.90
21895;DHT22;11112;51.270;7.224;2024-01-27T02:50:11;7.40;99.90
21895;DHT22;11112;51.270;7.224;2024-01-27T02:52:38;7.40;99.90
21895;DHT22;11112;51.270;7.224;2024-01-27T02:55:05;7.40;99.90
21895;DHT22;11112;51.270;7.224;2024-01-27T02:57:33;7.40;99.90
21895;DHT22;11112;51.270;7.224;2024-01-27T03:00:02;7.40;99.90
21895;DHT22;11112;51.270;7.224;2024-01-27T03:02:30;7.40;99.90
21895;DHT22;11112;51.270;7.224;2024-01-27T03:04:57;7.30;99.90
21895;DHT22;11112;51.270;7.224;2024-01-27T03:07:24;7.30;99.90
21895;DHT22;11112;51.270;7.224;2024-01-27T03:09:51;7.20;99.90
21895;DHT22;11112;51.270;7.224;2024-01-27T03:12:18;7.20;99.90
21895;DHT22;11112;51.270;7.224;2024-01-27T03:14:45;7.20;99.90
21895;DHT22;11112;51.270;7.224;2024-01-27T03:17:15;7.20;99.90
21895;DHT22;11112;51.270;7.224;2024-01-27T03:19:42;7.20;99.90
21895;DHT22;11112;51.270;7.224;2024-01-27T03:22:09;7.30;99.90
21895;DHT22;11112;51.270;7.224;2024-01-27T03:24:36;7.30;99.90
21895;DHT22;11112;51.270;7.224;2024-01-27T03:27:04;7.20;99.90
21895;DHT22;11112;51.270;7.224;2024-01-27T03:29:31;7.20;99.90
21895;DHT22;11112;51.270;7.224;2024-01-27T03:31:58;7.20;99.90
21895;DHT22;11112;51.270;7.224;2024-01-27T03:34:26;7.20;99.90
21895;DHT22;11112;51.270;7.224;2024-01-27T03:36:53;7.20;99.90
21895;DHT22;11112;51.270;7.224;2024-01-27T03:39:21;7.30;99.90
21895;DHT22;11112;51.270;7.224;2024-01-27T03:41:48;7.20;99.90
21895;DHT22;11112;51.270;7.224;2024-01-27T03:44:15;7.20;99.90
21895;DHT22;11112;51.270;7.224;2024-01-27T03:46:42;7.10;99.90
21895;DHT22;11112;51.270;7.224;2024-01-27T03:49:09;7.10;99.90
21895;DHT22;11112;51.270;7.224;2024-01-27T03:51:38;7.10;99.90
21895;DHT22;11112;51.270;7.224;2024-01-27T03:54:05;7.10;99.90
21895;DHT22;11112;51.270;7.224;2024-01-27T03:56:32;7.10;99.90
21895;DHT22;11112;51.270;7.224;2024-01-27T03:58:59;7.10;99.90
21895;DHT22;11112;51.270;7.224;2024-01-27T04:01:27;7.10;99.90
21895;DHT22;11112;51.270;7.224;2024-01-27T04:03:54;7.10;99.90
21895;DHT22;11112;51.270;7.224;2024-01-27T04:06:21;7.10;99.90
21895;DHT22;11112;51.270;7.224;2024-01-27T04:08:49;7.00;99.90
21895;DHT22;11112;51.270;7.224;2024-01-27T04:11:20;7.00;99.90
21895;DHT22;11112;51.270;7.224;2024-01-27T04:13:49;7.00;99.90
21895;DHT22;11112;51.270;7.224;2024-01-27T04:16:16;7.00;99.90
21895;DHT22;11112;51.270;7.224;2024-01-27T04:18:43;7.00;99.90
21895;DHT22;11112;51.270;7.224;2024-01-27T04:21:10;7.00;99.90
21895;DHT22;11112;51.270;7.224;2024-01-27T04:23:37;7.00;99.90
21895;DHT22;11112;51.270;7.224;2024-01-27T04:26:06;7.00;99.90
21895;DHT22;11112;51.270;7.224;2024-01-27T04:28:34;6.90;99.90
21895;DHT22;11112;51.270;7.224;2024-01-27T04:31:02;6.90;99.90
21895;DHT22;11112;51.270;7.224;2024-01-27T04:33:29;6.90;99.90
21895;DHT22;11112;51.270;7.224;2024-01-27T04:35:56;6.90;99.90
21895;DHT22;11112;51.270;7.224;2024-01-27T04:38:23;6.90;99.90
21895;DHT22;11112;51.270;7.224;2024-01-27T04:40:51;7.00;99.90
21895;DHT22;11112;51.270;7.224;2024-01-27T04:43:20;6.90;99.90
21895;DHT22;11112;51.270;7.224;2024-01-27T04:45:47;6.90;99.90
21895;DHT22;11112;51.270;7.224;2024-01-27T04:48:14;7.00;99.90
21895;DHT22;11112;51.270;7.224;2024-01-27T04:50:42;6.90;99.90
21895;DHT22;11112;51.270;7.224;2024-01-27T04:53:09;6.90;99.90
21895;DHT22;11112;51.270;7.224;2024-01-27T04:55:36;7.00;99.90
21895;DHT22;11112;51.270;7.224;2024-01-27T04:58:03;6.90;99.90
21895;DHT22;11112;51.270;7.224;2024-01-27T05:00:32;6.90;99.90
21895;DHT22;11112;51.270;7.224;2024-01-27T05:02:59;6.90;99.90
21895;DHT22;11112;51.270;7.224;2024-01-27T05:05:29;6.90;99.90
21895;DHT22;11112;51.270;7.224;2024-01-27T05:07:56;6.90;99.90
21895;DHT22;11112;51.270;7.224;2024-01-27T05:10:23;6.90;99.90
21895;DHT22;11112;51.270;7.224;2024-01-27T05:12:51;6.90;99.90
21895;DHT22;11112;51.270;7.224;2024-01-27T05:15:18;6.90;99.90
21895;DHT22;11112;51.270;7.224;2024-01-27T05:17:47;6.90;99.90
21895;DHT22;11112;51.270;7.224;2024-01-27T05:20:14;6.90;99.90
21895;DHT22;11112;51.270;7.224;2024-01-27T05:22:41;6.80;99.90
21895;DHT22;11112;51.270;7.224;2024-01-27T05:25:08;6.90;99.90
21895;DHT22;11112;51.270;7.224;2024-01-27T05:27:37;6.90;99.90
21895;DHT22;11112;51.270;7.224;2024-01-27T05:30:05;6.80;99.90
21895;DHT22;11112;51.270;7.224;2024-01-27T05:32:33;6.80;99.90
21895;DHT22;11112;51.270;7.224;2024-01-27T05:35:01;6.80;99.90
21895;DHT22;11112;51.270;7.224;2024-01-27T05:37:30;6.90;99.90
21895;DHT22;11112;51.270;7.224;2024-01-27T05:39:57;6.80;99.90
21895;DHT22;11112;51.270;7.224;2024-01-27T05:42:24;6.80;99.90
21895;DHT22;11112;51.270;7.224;2024-01-27T05:44:51;6.80;99.90
21895;DHT22;11112;51.270;7.224;2024-01-27T05:47:18;6.80;99.90
21895;DHT22;11112;51.270;7.224;2024-01-27T05:49:45;6.80;99.90
21895;DHT22;11112;51.270;7.224;2024-01-27T05:52:14;6.80;99.90
21895;DHT22;11112;51.270;7.224;2024-01-27T05:54:41;6.80;99.90
21895;DHT22;11112;51.270;7.224;2024-01-27T05:57:10;6.80;99.90
21895;DHT22;11112;51.270;7.224;2024-01-27T05:59:37;6.80;99.90
21895;DHT22;11112;51.270;7.224;2024-01-27T06:02:04;6.80;99.90
21895;DHT22;11112;51.270;7.224;2024-01-27T06:04:31;6.80;99.90
21895;DHT22;11112;51.270;7.224;2024-01-27T06:06:59;6.70;99.90
21895;DHT22;11112;51.270;7.224;2024-01-27T06:09:28;6.70;99.90
21895;DHT22;11112;51.270;7.224;2024-01-27T06:11:58;6.70;99.90
21895;DHT22;11112;51.270;7.224;2024-01-27T06:14:26;6.70;99.90
21895;DHT22;11112;51.270;7.224;2024-01-27T06:16:53;6.70;99.90
21895;DHT22;11112;51.270;7.224;2024-01-27T06:19:20;6.70;99.90
21895;DHT22;11112;51.270;7.224;2024-01-27T06:21:47;6.70;99.90
21895;DHT22;11112;51.270;7.224;2024-01-27T06:24:14;6.70;99.90
21895;DHT22;11112;51.270;7.224;2024-01-27T06:26:43;6.60;99.90
21895;DHT22;11112;51.270;7.224;2024-01-27T06:29:10;6.50;99.90
21895;DHT22;11112;51.270;7.224;2024-01-27T06:31:37;6.50;99.90
21895;DHT22;11112;51.270;7.224;2024-01-27T06:34:04;6.40;99.90
21895;DHT22;11112;51.270;7.224;2024-01-27T06:36:31;6.40;99.90
21895;DHT22;11112;51.270;7.224;2024-01-27T06:38:58;6.40;99.90
21895;DHT22;11112;51.270;7.224;2024-01-27T06:41:25;6.40;99.90
21895;DHT22;11112;51.270;7.224;2024-01-27T06:43:53;6.40;99.90
21895;DHT22;11112;51.270;7.224;2024-01-27T06:46:20;6.40;99.90
21895;DHT22;11112;51.270;7.224;2024-01-27T06:48:48;6.40;99.90
21895;DHT22;11112;51.270;7.224;2024-01-27T06:51:15;6.40;99.90
21895;DHT22;11112;51.270;7.224;2024-01-27T06:53:42;6.40;99.90
21895;DHT22;11112;51.270;7.224;2024-01-27T06:56:09;6.40;99.90
21895;DHT22;11112;51.270;7.224;2024-01-27T06:58:36;6.50;99.90
21895;DHT22;11112;51.270;7.224;2024-01-27T07:01:06;6.50;99.90
21895;DHT22;11112;51.270;7.224;2024-01-27T07:03:35;6.50;99.90
21895;DHT22;11112;51.270;7.224;2024-01-27T07:06:04;6.50;99.90
21895;DHT22;11112;51.270;7.224;2024-01-27T07:08:35;6.50;99.90
21895;DHT22;11112;51.270;7.224;2024-01-27T07:11:03;6.60;99.90
21895;DHT22;11112;51.270;7.224;2024-01-27T07:13:30;6.60;99.90
21895;DHT22;11112;51.270;7.224;2024-01-27T07:15:57;6.50;99.90
21895;DHT22;11112;51.270;7.224;2024-01-27T07:18:26;6.50;99.90
21895;DHT22;11112;51.270;7.224;2024-01-27T07:20:54;6.50;99.90
21895;DHT22;11112;51.270;7.224;2024-01-27T07:23:21;6.50;99.90
21895;DHT22;11112;51.270;7.224;2024-01-27T07:25:48;6.50;99.90
21895;DHT22;11112;51.270;7.224;2024-01-27T07:28:15;6.50;99.90
21895;DHT22;11112;51.270;7.224;2024-01-27T07:30:44;6.50;99.90
21895;DHT22;11112;51.270;7.224;2024-01-27T07:33:11;6.40;99.90
21895;DHT22;11112;51.270;7.224;2024-01-27T07:35:40;6.30;99.90
21895;DHT22;11112;51.270;7.224;2024-01-27T07:38:07;6.30;99.90
21895;DHT22;11112;51.270;7.224;2024-01-27T07:40:34;6.20;99.90
21895;DHT22;11112;51.270;7.224;2024-01-27T07:43:01;6.30;99.90
21895;DHT22;11112;51.270;7.224;2024-01-27T07:45:29;6.30;99.90
21895;DHT22;11112;51.270;7.224;2024-01-27T07:47:56;6.40;99.90
21895;DHT22;11112;51.270;7.224;2024-01-27T07:50:23;6.40;99.90
21895;DHT22;11112;51.270;7.224;2024-01-27T07:52:51;6.40;99.90
21895;DHT22;11112;51.270;7.224;2024-01-27T07:55:19;6.40;99.90
21895;DHT22;11112;51.270;7.224;2024-01-27T07:57:45;6.40;99.90
21895;DHT22;11112;51.270;7.224;2024-01-27T08:00:14;6.40;99.90
21895;DHT22;11112;51.270;7.224;2024-01-27T08:02:41;6.40;99.90
21895;DHT22;11112;51.270;7.224;2024-01-27T08:05:08;6.40;99.90
21895;DHT22;11112;51.270;7.224;2024-01-27T08:07:35;6.30;99.90
21895;DHT22;11112;51.270;7.224;2024-01-27T08:10:04;6.40;99.90
21895;DHT22;11112;51.270;7.224;2024-01-27T08:12:32;6.40;99.90
21895;DHT22;11112;51.270;7.224;2024-01-27T08:14:59;6.40;99.90
21895;DHT22;11112;51.270;7.224;2024-01-27T08:17:26;6.40;99.90
21895;DHT22;11112;51.270;7.224;2024-01-27T08:19:53;6.30;99.90
21895;DHT22;11112;51.270;7.224;2024-01-27T08:22:20;6.30;99.90
21895;DHT22;11112;51.270;7.224;2024-01-27T08:24:47;6.40;99.90
21895;DHT22;11112;51.270;7.224;2024-01-27T08:27:15;6.40;99.90
21895;DHT22;11112;51.270;7.224;2024-01-27T08:29:42;6.40;99.90
21895;DHT22;11112;51.270;7.224;2024-01-27T08:32:09;6.40;99.90
21895;DHT22;11112;51.270;7.224;2024-01-27T08:34:36;6.40;99.90
21895;DHT22;11112;51.270;7.224;2024-01-27T08:37:14;6.40;99.90
21895;DHT22;11112;51.270;7.224;2024-01-27T08:39:45;6.50;99.90
21895;DHT22;11112;51.270;7.224;2024-01-27T08:42:12;6.50;99.90
21895;DHT22;11112;51.270;7.224;2024-01-27T08:44:40;6.50;99.90
21895;DHT22;11112;51.270;7.224;2024-01-27T08:47:07;6.50;99.90
21895;DHT22;11112;51.270;7.224;2024-01-27T08:49:34;6.60;99.90
21895;DHT22;11112;51.270;7.224;2024-01-27T08:52:02;6.60;99.90
21895;DHT22;11112;51.270;7.224;2024-01-27T08:54:29;6.60;99.90
21895;DHT22;11112;51.270;7.224;2024-01-27T08:56:56;6.60;99.90
21895;DHT22;11112;51.270;7.224;2024-01-27T08:59:23;6.70;99.90
21895;DHT22;11112;51.270;7.224;2024-01-27T09:01:52;6.70;99.90
21895;DHT22;11112;51.270;7.224;2024-01-27T09:04:19;6.70;99.90
21895;DHT22;11112;51.270;7.224;2024-01-27T09:06:46;6.80;99.90
21895;DHT22;11112;51.270;7.224;2024-01-27T09:09:15;6.80;99.90
21895;DHT22;11112;51.270;7.224;2024-01-27T09:11:42;6.80;99.90
21895;DHT22;11112;51.270;7.224;2024-01-27T09:14:11;6.90;99.90
21895;DHT22;11112;51.270;7.224;2024-01-27T09:16:38;6.90;99.90
21895;DHT22;11112;51.270;7.224;2024-01-27T09:19:07;6.80;99.90
21895;DHT22;11112;51.270;7.224;2024-01-27T09:21:34;6.90;99.90
21895;DHT22;11112;51.270;7.224;2024-01-27T09:24:02;6.90;99.90
21895;DHT22;11112;51.270;7.224;2024-01-27T09:26:30;7.00;99.90
21895;DHT22;11112;51.270;7.224;2024-01-27T09:28:57;7.00;99.90
21895;DHT22;11112;51.270;7.224;2024-01-27T09:31:24;7.00;99.90
21895;DHT22;11112;51.270;7.224;2024-01-27T09:33:53;7.00;99.90
21895;DHT22;11112;51.270;7.224;2024-01-27T09:36:22;7.00;99.90
21895;DHT22;11112;51.270;7.224;2024-01-27T09:38:49;7.10;99.90
21895;DHT22;11112;51.270;7.224;2024-01-27T09:41:17;7.10;99.90
21895;DHT22;11112;51.270;7.224;2024-01-27T09:43:46;7.10;99.90
21895;DHT22;11112;51.270;7.224;2024-01-27T09:46:15;7.10;99.90
21895;DHT22;11112;51.270;7.224;2024-01-27T09:48:43;7.10;99.90
21895;DHT22;11112;51.270;7.224;2024-01-27T09:51:10;7.10;99.90
21895;DHT22;11112;51.270;7.224;2024-01-27T09:53:39;7.10;99.90
21895;DHT22;11112;51.270;7.224;2024-01-27T09:56:07;7.10;99.90
21895;DHT22;11112;51.270;7.224;2024-01-27T09:58:36;7.20;99.90
21895;DHT22;11112;51.270;7.224;2024-01-27T10:01:04;7.10;99.90
21895;DHT22;11112;51.270;7.224;2024-01-27T10:03:34;7.20;99.90
21895;DHT22;11112;51.270;7.224;2024-01-27T10:06:02;7.20;99.90
21895;DHT22;11112;51.270;7.224;2024-01-27T10:08:31;7.30;99.90
21895;DHT22;11112;51.270;7.224;2024-01-27T10:10:59;7.30;99.90
21895;DHT22;11112;51.270;7.224;2024-01-27T10:13:33;7.40;99.90
21895;DHT22;11112;51.270;7.224;2024-01-27T10:16:01;7.40;99.90
21895;DHT22;11112;51.270;7.224;2024-01-27T10:18:29;7.40;99.90
21895;DHT22;11112;51.270;7.224;2024-01-27T10:20:56;7.40;99.90
21895;DHT22;11112;51.270;7.224;2024-01-27T10:23:23;7.40;99.90
21895;DHT22;11112;51.270;7.224;2024-01-27T10:25:51;7.40;99.90
21895;DHT22;11112;51.270;7.224;2024-01-27T10:28:20;7.50;99.90
21895;DHT22;11112;51.270;7.224;2024-01-27T10:30:48;7.50;99.90
21895;DHT22;11112;51.270;7.224;2024-01-27T10:33:15;7.60;99.90
21895;DHT22;11112;51.270;7.224;2024-01-27T10:35:43;7.70;99.90
21895;DHT22;11112;51.270;7.224;2024-01-27T10:38:13;7.70;99.90
21895;DHT22;11112;51.270;7.224;2024-01-27T10:40:40;7.70;99.90
21895;DHT22;11112;51.270;7.224;2024-01-27T10:43:08;7.80;99.90
21895;DHT22;11112;51.270;7.224;2024-01-27T10:45:38;7.80;99.90
21895;DHT22;11112;51.270;7.224;2024-01-27T10:48:06;7.80;99.90
21895;DHT22;11112;51.270;7.224;2024-01-27T10:50:37;7.90;99.90
21895;DHT22;11112;51.270;7.224;2024-01-27T10:53:08;7.90;99.90
21895;DHT22;11112;51.270;7.224;2024-01-27T10:55:37;8.00;99.90
21895;DHT22;11112;51.270;7.224;2024-01-27T10:58:04;8.00;99.90
21895;DHT22;11112;51.270;7.224;2024-01-27T11:00:38;8.00;99.90
21895;DHT22;11112;51.270;7.224;2024-01-27T11:03:07;8.00;99.90
21895;DHT22;11112;51.270;7.224;2024-01-27T11:05:35;8.00;99.90
21895;DHT22;11112;51.270;7.224;2024-01-27T11:08:05;8.10;99.90
21895;DHT22;11112;51.270;7.224;2024-01-27T11:10:33;8.10;99.90
21895;DHT22;11112;51.270;7.224;2024-01-27T11:13:04;8.10;99.90
21895;DHT22;11112;51.270;7.224;2024-01-27T11:15:35;8.10;99.90
21895;DHT22;11112;51.270;7.224;2024-01-27T11:18:06;8.10;99.90
21895;DHT22;11112;51.270;7.224;2024-01-27T11:20:33;8.10;99.90
21895;DHT22;11112;51.270;7.224;2024-01-27T11:23:09;8.20;99.90
21895;DHT22;11112;51.270;7.224;2024-01-27T11:25:36;8.20;99.90
21895;DHT22;11112;51.270;7.224;2024-01-27T11:28:11;8.20;99.90
21895;DHT22;11112;51.270;7.224;2024-01-27T11:30:46;8.30;99.90
21895;DHT22;11112;51.270;7.224;2024-01-27T11:33:14;8.30;99.90
21895;DHT22;11112;51.270;7.224;2024-01-27T11:35:41;8.30;99.90
21895;DHT22;11112;51.270;7.224;2024-01-27T11:38:08;8.30;99.90
21895;DHT22;11112;51.270;7.224;2024-01-27T11:40:45;8.30;99.90
21895;DHT22;11112;51.270;7.224;2024-01-27T11:43:12;8.30;99.90
21895;DHT22;11112;51.270;7.224;2024-01-27T11:45:41;8.40;99.90
21895;DHT22;11112;51.270;7.224;2024-01-27T11:48:09;8.40;99.90
21895;DHT22;11112;51.270;7.224;2024-01-27T11:50:36;8.40;99.90
21895;DHT22;11112;51.270;7.224;2024-01-27T11:53:04;8.40;99.90
21895;DHT22;11112;51.270;7.224;2024-01-27T11:55:35;8.40;99.90
21895;DHT22;11112;51.270;7.224;2024-01-27T11:58:02;8.40;99.90
21895;DHT22;11112;51.270;7.224;2024-01-27T12:00:30;8.40;99.90
21895;DHT22;11112;51.270;7.224;2024-01-27T12:02:57;8.50;99.90
21895;DHT22;11112;51.270;7.224;2024-01-27T12:05:24;8.50;99.90
21895;DHT22;11112;51.270;7.224;2024-01-27T12:07:51;8.40;99.90
21895;DHT22;11112;51.270;7.224;2024-01-27T12:10:18;8.50;99.90
21895;DHT22;11112;51.270;7.224;2024-01-27T12:12:46;8.50;99.90
21895;DHT22;11112;51.270;7.224;2024-01-27T12:15:13;8.50;99.90
21895;DHT22;11112;51.270;7.224;2024-01-27T12:17:40;8.50;99.90
21895;DHT22;11112;51.270;7.224;2024-01-27T12:20:14;8.50;99.90
21895;DHT22;11112;51.270;7.224;2024-01-27T12:22:43;8.50;99.90
21895;DHT22;11112;51.270;7.224;2024-01-27T12:25:11;8.50;99.90
21895;DHT22;11112;51.270;7.224;2024-01-27T12:27:39;8.50;99.90
21895;DHT22;11112;51.270;7.224;2024-01-27T12:30:07;8.50;99.90
21895;DHT22;11112;51.270;7.224;2024-01-27T12:32:35;8.50;99.90
21895;DHT22;11112;51.270;7.224;2024-01-27T12:35:04;8.50;99.90
21895;DHT22;11112;51.270;7.224;2024-01-27T12:37:34;8.50;99.90
21895;DHT22;11112;51.270;7.224;2024-01-27T12:40:01;8.50;99.90
21895;DHT22;11112;51.270;7.224;2024-01-27T12:42:28;8.50;99.90
21895;DHT22;11112;51.270;7.224;2024-01-27T12:44:55;8.50;99.90
21895;DHT22;11112;51.270;7.224;2024-01-27T12:47:22;8.50;99.90
21895;DHT22;11112;51.270;7.224;2024-01-27T12:49:49;8.50;99.90
21895;DHT22;11112;51.270;7.224;2024-01-27T12:52:16;8.60;99.90
21895;DHT22;11112;51.270;7.224;2024-01-27T12:54:45;8.60;99.90
21895;DHT22;11112;51.270;7.224;2024-01-27T12:57:12;8.60;99.90
21895;DHT22;11112;51.270;7.224;2024-01-27T12:59:39;8.60;99.90
21895;DHT22;11112;51.270;7.224;2024-01-27T13:02:09;8.60;99.90
21895;DHT22;11112;51.270;7.224;2024-01-27T13:04:36;8.60;99.90
21895;DHT22;11112;51.270;7.224;2024-01-27T13:07:03;8.60;99.90
21895;DHT22;11112;51.270;7.224;2024-01-27T13:09:30;8.60;99.90
21895;DHT22;11112;51.270;7.224;2024-01-27T13:11:58;8.60;99.80
21895;DHT22;11112;51.270;7.224;2024-01-27T13:14:25;8.60;99.80
21895;DHT22;11112;51.270;7.224;2024-01-27T13:16:52;8.60;99.70
21895;DHT22;11112;51.270;7.224;2024-01-27T13:19:20;8.60;99.70
21895;DHT22;11112;51.270;7.224;2024-01-27T13:21:47;8.60;99.90
21895;DHT22;11112;51.270;7.224;2024-01-27T13:24:14;8.60;99.80
21895;DHT22;11112;51.270;7.224;2024-01-27T13:26:41;8.60;99.90
21895;DHT22;11112;51.270;7.224;2024-01-27T13:29:08;8.60;99.90
21895;DHT22;11112;51.270;7.224;2024-01-27T13:31:35;8.70;99.70
21895;DHT22;11112;51.270;7.224;2024-01-27T13:34:02;8.60;99.90
21895;DHT22;11112;51.270;7.224;2024-01-27T13:36:31;8.70;99.90
21895;DHT22;11112;51.270;7.224;2024-01-27T13:38:59;8.60;99.50
21895;DHT22;11112;51.270;7.224;2024-01-27T13:41:26;8.60;99.40
21895;DHT22;11112;51.270;7.224;2024-01-27T13:43:53;8.60;99.40
21895;DHT22;11112;51.270;7.224;2024-01-27T13:46:21;8.60;99.60
21895;DHT22;11112;51.270;7.224;2024-01-27T13:48:49;8.70;99.70
21895;DHT22;11112;51.270;7.224;2024-01-27T13:51:16;8.70;99.90
21895;DHT22;11112;51.270;7.224;2024-01-27T13:53:43;8.70;99.70
21895;DHT22;11112;51.270;7.224;2024-01-27T13:56:11;8.60;99.30
21895;DHT22;11112;51.270;7.224;2024-01-27T13:58:38;8.70;99.40
21895;DHT22;11112;51.270;7.224;2024-01-27T14:01:06;8.60;99.10
21895;DHT22;11112;51.270;7.224;2024-01-27T14:03:35;8.60;99.30
21895;DHT22;11112;51.270;7.224;2024-01-27T14:06:04;8.70;99.40
21895;DHT22;11112;51.270;7.224;2024-01-27T14:08:33;8.60;99.40
21895;DHT22;11112;51.270;7.224;2024-01-27T14:11:00;8.70;99.50
21895;DHT22;11112;51.270;7.224;2024-01-27T14:13:27;8.70;99.20
21895;DHT22;11112;51.270;7.224;2024-01-27T14:15:54;8.70;99.50
21895;DHT22;11112;51.270;7.224;2024-01-27T14:18:21;8.70;99.80
21895;DHT22;11112;51.270;7.224;2024-01-27T14:20:49;8.70;99.50
21895;DHT22;11112;51.270;7.224;2024-01-27T14:23:17;8.70;99.70
21895;DHT22;11112;51.270;7.224;2024-01-27T14:25:44;8.70;99.80
21895;DHT22;11112;51.270;7.224;2024-01-27T14:28:11;8.70;99.60
21895;DHT22;11112;51.270;7.224;2024-01-27T14:30:39;8.70;99.60
21895;DHT22;11112;51.270;7.224;2024-01-27T14:33:06;8.70;99.60
21895;DHT22;11112;51.270;7.224;2024-01-27T14:35:33;8.60;99.20
21895;DHT22;11112;51.270;7.224;2024-01-27T14:38:02;8.70;99.40
21895;DHT22;11112;51.270;7.224;2024-01-27T14:40:30;8.70;99.70
21895;DHT22;11112;51.270;7.224;2024-01-27T14:43:00;8.70;99.40
21895;DHT22;11112;51.270;7.224;2024-01-27T14:45:36;8.70;99.80
21895;DHT22;11112;51.270;7.224;2024-01-27T14:48:05;8.70;99.90
21895;DHT22;11112;51.270;7.224;2024-01-27T14:50:32;8.70;99.90
21895;DHT22;11112;51.270;7.224;2024-01-27T14:52:59;8.70;99.40
21895;DHT22;11112;51.270;7.224;2024-01-27T14:55:30;8.70;99.40
21895;DHT22;11112;51.270;7.224;2024-01-27T14:57:58;8.70;99.40
21895;DHT22;11112;51.270;7.224;2024-01-27T15:00:25;8.70;99.00
21895;DHT22;11112;51.270;7.224;2024-01-27T15:02:52;8.70;99.10
21895;DHT22;11112;51.270;7.224;2024-01-27T15:05:19;8.60;99.00
21895;DHT22;11112;51.270;7.224;2024-01-27T15:07:46;8.70;99.10
21895;DHT22;11112;51.270;7.224;2024-01-27T15:10:13;8.60;98.90
21895;DHT22;11112;51.270;7.224;2024-01-27T15:12:42;8.60;99.10
21895;DHT22;11112;51.270;7.224;2024-01-27T15:15:09;8.60;99.10
21895;DHT22;11112;51.270;7.224;2024-01-27T15:17:38;8.70;99.10
21895;DHT22;11112;51.270;7.224;2024-01-27T15:20:06;8.60;99.20
21895;DHT22;11112;51.270;7.224;2024-01-27T15:22:33;8.60;99.30
21895;DHT22;11112;51.270;7.224;2024-01-27T15:25:00;8.70;99.40
21895;DHT22;11112;51.270;7.224;2024-01-27T15:27:28;8.70;99.30
21895;DHT22;11112;51.270;7.224;2024-01-27T15:29:56;8.70;99.40
21895;DHT22;11112;51.270;7.224;2024-01-27T15:32:26;8.70;99.50
21895;DHT22;11112;51.270;7.224;2024-01-27T15:34:53;8.70;99.60
21895;DHT22;11112;51.270;7.224;2024-01-27T15:37:20;8.70;99.80
21895;DHT22;11112;51.270;7.224;2024-01-27T15:39:47;8.70;99.90
21895;DHT22;11112;51.270;7.224;2024-01-27T15:42:15;8.70;99.90
21895;DHT22;11112;51.270;7.224;2024-01-27T15:44:45;8.70;99.90
21895;DHT22;11112;51.270;7.224;2024-01-27T15:47:13;8.60;99.90